Startpagina
METAR-TAF:

METAR-TAF

Vliegvelden :

Quelimane, Mozambique

breedte: 17-53S, lengte: 036-53E, hoogte: 6 m

Actueel weer

Dit bericht is 37 minuten geleden gemaakt, om 14:00 UTC
Wind 8 kt uit het zuidoosten met uitschieters tot 27 kt
Temperatuur 31°C
Vochtigheid 66%
Druk 1012 hPa
Zicht 10 km of meer
Gebroken wolken op 2000 ft

METAR: FQQL 051400Z 14008G27KT 9999 BKN020 31/24 Q1012

Tijdstip: 16:37 (14:37 UTC)

Verwachting

Dit bericht is 4 uur en het 37 minuten geleden gemaakt, om 10:00 UTC
Verwachting geldig van 05 om 12 UTC tot 06 om 12 UTC
Wind 10 kt uit het zuidoosten met uitschieters tot 20 kt
Zicht 10 km of meer
Gebroken wolken op 2000 ft
Kans 30% :
Tijdelijke
van 05 om 12 UTC tot 05 om 18 UTC
Zicht: 5000 m
lichte regen, motregen
Wijzigt naar
van 05 om 20 UTC tot 05 om 22 UTC
Wind 8 kt uit het zuiden

TAF: FQQL 051000Z 0512/0612 13010G20KT 9999 BKN020 TX35/0513Z TN26/0603Z PROB30 TEMPO 0512/0518 5000 -RADZ BECMG 0520/0522 19008KT

Waarnemingen en weersverwachtingen van meer dan 4000 vliegvelden (METAR en TAF).

De beschikbare stations zijn de gele en rode punten op de kaart.

Ga met uw muis naar het station om de naam te zien.

Klik dan om waarnemingen en weersverwachtingen te zien.

kaart wijzigen: klik op de groene knoppen met een zwart kruis om in te zoomen, op de groene knop met een streepje om uit te zoomen of op de groene pijlen voor aangrenzende kaarten.


METAR-TAF: